createdAt,value
2022-09-22T00:01:25.041Z,7.80
2022-09-22T00:03:57.746Z,4.43
2022-09-22T00:06:28.966Z,4.70
2022-09-22T00:09:00.682Z,4.50
2022-09-22T00:11:36.290Z,9.00
2022-09-22T00:14:10.084Z,4.82
2022-09-22T00:16:46.599Z,2.78
2022-09-22T00:19:22.947Z,3.60
2022-09-22T00:21:50.638Z,4.18
2022-09-22T00:24:19.914Z,4.25
2022-09-22T00:26:46.699Z,7.90
2022-09-22T00:29:13.714Z,6.45
2022-09-22T00:31:42.126Z,7.00
2022-09-22T00:34:19.070Z,4.03
2022-09-22T00:36:46.746Z,5.25
2022-09-22T00:39:14.870Z,5.40
2022-09-22T00:41:44.919Z,3.63
2022-09-22T00:44:26.703Z,2.45
2022-09-22T00:46:56.570Z,5.70
2022-09-22T00:49:31.501Z,4.45
2022-09-22T00:51:58.214Z,4.10
2022-09-22T00:54:24.967Z,4.60
2022-09-22T00:57:08.181Z,12.60
2022-09-22T00:59:36.284Z,2.75
2022-09-22T01:02:03.357Z,6.28
2022-09-22T01:04:30.231Z,7.30
2022-09-22T01:06:58.549Z,3.33
2022-09-22T01:09:25.988Z,5.75
2022-09-22T01:11:53.022Z,6.28
2022-09-22T01:14:25.830Z,5.15
2022-09-22T01:17:40.976Z,6.65
2022-09-22T01:20:33.906Z,4.03
2022-09-22T01:23:37.944Z,6.82
2022-09-22T01:26:07.296Z,5.65
2022-09-22T01:28:55.384Z,8.35
2022-09-22T01:31:51.233Z,5.43
2022-09-22T01:34:30.181Z,5.15
2022-09-22T01:37:24.820Z,4.57
2022-09-22T01:39:54.547Z,2.47
2022-09-22T01:42:37.318Z,8.30
2022-09-22T01:45:07.901Z,3.47
2022-09-22T01:47:41.102Z,5.07
2022-09-22T01:50:32.590Z,4.05
2022-09-22T01:53:03.422Z,3.42
2022-09-22T01:55:39.025Z,3.55
2022-09-22T01:58:12.150Z,5.28
2022-09-22T02:00:44.189Z,9.60
2022-09-22T02:05:47.652Z,4.47
2022-09-22T02:08:20.423Z,2.08
2022-09-22T02:10:48.720Z,4.93
2022-09-22T02:13:15.510Z,3.50
2022-09-22T02:16:01.577Z,2.95
2022-09-22T02:18:54.145Z,3.30
2022-09-22T02:21:22.510Z,2.63
2022-09-22T02:23:49.933Z,4.65
2022-09-22T02:26:24.152Z,3.67
2022-09-22T02:29:05.089Z,3.83
2022-09-22T02:31:36.055Z,3.42
2022-09-22T02:34:05.319Z,4.32
2022-09-22T02:37:05.714Z,5.05
2022-09-22T02:40:07.811Z,2.00
2022-09-22T02:42:43.837Z,1.38
2022-09-22T02:45:13.426Z,1.52
2022-09-22T02:47:52.048Z,3.83
2022-09-22T02:50:23.018Z,2.72
2022-09-22T02:52:53.402Z,1.38
2022-09-22T02:55:20.215Z,4.25
2022-09-22T02:57:46.955Z,2.30
2022-09-22T03:02:54.998Z,4.15
2022-09-22T03:05:21.914Z,3.17
2022-09-22T03:07:49.288Z,4.20
2022-09-22T03:10:16.254Z,0.95
2022-09-22T03:13:09.135Z,1.15
2022-09-22T03:15:30.969Z,3.50
2022-09-22T03:17:57.750Z,2.53
2022-09-22T03:20:24.494Z,1.52
2022-09-22T03:22:54.867Z,3.30
2022-09-22T03:25:21.678Z,3.80
2022-09-22T03:27:48.393Z,2.75
2022-09-22T03:30:15.060Z,1.73
2022-09-22T03:32:41.852Z,1.42
2022-09-22T03:35:09.289Z,2.88
2022-09-22T03:37:36.467Z,0.95
2022-09-22T03:40:04.546Z,1.17
2022-09-22T03:42:32.956Z,1.73
2022-09-22T03:44:59.968Z,0.82
2022-09-22T03:47:26.736Z,1.75
2022-09-22T03:49:53.417Z,1.23
2022-09-22T03:52:20.601Z,2.70
2022-09-22T03:54:47.964Z,3.97
2022-09-22T03:57:15.030Z,1.85
2022-09-22T03:59:41.713Z,0.50
2022-09-22T04:02:10.888Z,2.53
2022-09-22T04:04:37.758Z,0.88
2022-09-22T04:07:07.402Z,1.33
2022-09-22T04:09:34.638Z,0.80
2022-09-22T04:12:01.559Z,1.38
2022-09-22T04:14:28.265Z,2.13
2022-09-22T04:16:55.096Z,1.85
2022-09-22T04:19:22.909Z,1.05
2022-09-22T04:21:54.619Z,2.95
2022-09-22T04:24:24.616Z,0.45
2022-09-22T04:27:17.994Z,0.43
2022-09-22T04:29:38.693Z,0.82
2022-09-22T04:32:05.779Z,1.83
2022-09-22T04:34:32.564Z,0.55
2022-09-22T04:36:59.363Z,0.57
2022-09-22T04:39:28.651Z,1.67
2022-09-22T04:41:56.637Z,2.03
2022-09-22T04:44:23.410Z,2.67
2022-09-22T04:46:51.262Z,0.28
2022-09-22T04:49:19.262Z,6.70
2022-09-22T04:51:46.074Z,4.38
2022-09-22T04:54:14.960Z,1.48
2022-09-22T04:56:42.396Z,0.65
2022-09-22T04:59:09.696Z,0.85
2022-09-22T05:01:36.545Z,1.45
2022-09-22T05:04:04.460Z,1.35
2022-09-22T05:06:31.260Z,0.28
2022-09-22T05:08:58.707Z,0.77
2022-09-22T05:11:26.541Z,1.50
2022-09-22T05:13:53.232Z,1.75
2022-09-22T05:16:20.257Z,0.60
2022-09-22T05:18:50.317Z,1.02
2022-09-22T05:21:19.703Z,0.45
2022-09-22T05:23:46.995Z,4.95
2022-09-22T05:26:15.773Z,2.28
2022-09-22T05:28:42.969Z,0.98
2022-09-22T05:31:11.629Z,2.22
2022-09-22T05:33:38.340Z,2.25
2022-09-22T05:36:05.162Z,2.35
2022-09-22T05:38:31.941Z,2.03
2022-09-22T05:40:58.728Z,1.73
2022-09-22T05:43:25.903Z,1.25
2022-09-22T05:45:52.803Z,2.65
2022-09-22T05:48:19.464Z,1.73
2022-09-22T05:50:46.190Z,1.38
2022-09-22T05:53:13.698Z,3.20
2022-09-22T05:55:41.084Z,10.57
2022-09-22T05:58:11.923Z,3.40
2022-09-22T06:00:40.199Z,0.90
2022-09-22T06:03:07.405Z,0.47
2022-09-22T06:05:37.170Z,1.38
2022-09-22T06:08:09.833Z,1.25
2022-09-22T06:10:38.586Z,2.00
2022-09-22T06:13:08.250Z,1.52
2022-09-22T06:15:36.361Z,3.60
2022-09-22T06:18:07.285Z,1.15
2022-09-22T06:20:35.388Z,1.25
2022-09-22T06:23:02.411Z,2.25
2022-09-22T06:25:29.724Z,1.98
2022-09-22T06:28:02.022Z,3.50
2022-09-22T06:30:28.855Z,0.60
2022-09-22T06:32:56.804Z,1.50
2022-09-22T06:35:24.231Z,1.00
2022-09-22T06:37:58.469Z,2.72
2022-09-22T06:40:26.398Z,1.23
2022-09-22T06:43:02.168Z,3.13
2022-09-22T06:45:29.548Z,0.95
2022-09-22T06:47:59.150Z,3.03
2022-09-22T06:50:29.447Z,1.30
2022-09-22T06:53:01.203Z,1.17
2022-09-22T06:55:31.609Z,1.73
2022-09-22T06:58:03.029Z,3.75
2022-09-22T07:00:33.263Z,2.22
2022-09-22T07:03:13.370Z,1.95
2022-09-22T07:05:40.101Z,3.25
2022-09-22T07:08:09.060Z,8.65
2022-09-22T07:10:38.957Z,1.42
2022-09-22T07:13:06.572Z,1.40
2022-09-22T07:15:34.991Z,2.78
2022-09-22T07:18:02.355Z,4.18
2022-09-22T07:20:30.586Z,3.97
2022-09-22T07:23:00.817Z,3.72
2022-09-22T07:25:29.112Z,5.30
2022-09-22T07:27:59.299Z,6.05
2022-09-22T07:30:26.389Z,4.85
2022-09-22T07:32:53.160Z,1.17
2022-09-22T07:35:19.925Z,2.22
2022-09-22T07:37:46.727Z,2.20
2022-09-22T07:40:14.707Z,0.93
2022-09-22T07:42:41.632Z,2.55
2022-09-22T07:45:12.885Z,2.58
2022-09-22T07:47:58.915Z,3.25
2022-09-22T07:50:25.744Z,4.90
2022-09-22T07:52:53.512Z,1.45
2022-09-22T07:55:25.142Z,0.77
2022-09-22T07:57:56.682Z,4.10
2022-09-22T08:00:34.537Z,2.22
2022-09-22T08:03:01.492Z,2.60
2022-09-22T08:05:29.044Z,1.00
2022-09-22T08:07:58.338Z,3.15
2022-09-22T08:10:26.215Z,2.55
2022-09-22T08:12:58.173Z,1.42
2022-09-22T08:18:01.813Z,4.82
2022-09-22T08:20:29.262Z,2.08
2022-09-22T08:23:03.175Z,3.50
2022-09-22T08:25:30.605Z,1.33
2022-09-22T08:27:57.477Z,2.58
2022-09-22T08:30:24.324Z,2.05
2022-09-22T08:32:51.047Z,0.93
2022-09-22T08:35:18.234Z,2.35
2022-09-22T08:37:45.763Z,2.95
2022-09-22T08:40:23.817Z,6.00
2022-09-22T08:42:54.577Z,6.00
2022-09-22T08:45:34.717Z,2.85
2022-09-22T08:48:38.057Z,1.08
2022-09-22T08:51:34.217Z,0.52
2022-09-22T08:54:04.465Z,2.63
2022-09-22T08:56:57.642Z,0.95
2022-09-22T08:59:33.008Z,1.25
2022-09-22T09:02:30.611Z,3.60
2022-09-22T09:05:23.665Z,4.07
2022-09-22T09:08:19.339Z,4.25
2022-09-22T09:11:20.487Z,2.38
2022-09-22T09:14:08.434Z,4.53
2022-09-22T09:16:40.973Z,2.95
2022-09-22T09:19:16.528Z,8.13
2022-09-22T09:21:55.264Z,3.42
2022-09-22T09:27:25.235Z,2.25
2022-09-22T09:30:06.927Z,3.92
2022-09-22T09:33:00.714Z,2.25
2022-09-22T09:35:53.064Z,2.42
2022-09-22T09:38:29.832Z,2.40
2022-09-22T09:41:11.952Z,4.50
2022-09-22T09:43:42.828Z,4.53
2022-09-22T09:46:19.446Z,7.20
2022-09-22T09:49:14.945Z,3.80
2022-09-22T09:52:04.119Z,1.60
2022-09-22T09:54:31.013Z,2.10
2022-09-22T09:57:12.914Z,1.98
2022-09-22T10:00:01.223Z,5.75
2022-09-22T10:02:29.793Z,3.78
2022-09-22T10:05:02.645Z,4.50
2022-09-22T10:07:39.423Z,3.67
2022-09-22T10:10:35.916Z,3.15
2022-09-22T10:13:05.329Z,2.72
2022-09-22T10:15:40.565Z,2.22
2022-09-22T10:18:33.783Z,3.10
2022-09-22T10:21:07.325Z,5.88
2022-09-22T10:23:34.629Z,3.38
2022-09-22T10:26:14.907Z,3.78
2022-09-22T10:28:41.730Z,3.03
2022-09-22T10:31:20.464Z,5.38
2022-09-22T10:33:55.893Z,1.80
2022-09-22T10:36:26.248Z,8.18
2022-09-22T10:38:57.389Z,2.88
2022-09-22T10:41:34.417Z,1.63
2022-09-22T10:44:35.053Z,4.03
2022-09-22T10:47:27.256Z,7.18
2022-09-22T10:50:28.548Z,1.67
2022-09-22T10:53:32.122Z,4.00
2022-09-22T10:56:22.728Z,5.20
2022-09-22T10:59:19.113Z,7.00
2022-09-22T11:02:03.080Z,6.60
2022-09-22T11:07:40.279Z,7.38
2022-09-22T11:10:31.613Z,5.32
2022-09-22T11:13:17.766Z,6.10
2022-09-22T11:16:13.411Z,7.85
2022-09-22T11:18:57.371Z,6.97
2022-09-22T11:21:43.889Z,8.48
2022-09-22T11:24:26.397Z,6.72
2022-09-22T11:26:59.857Z,7.47
2022-09-22T11:29:55.784Z,3.72
2022-09-22T11:32:40.344Z,5.47
2022-09-22T11:35:25.669Z,7.30
2022-09-22T11:38:02.325Z,3.20
2022-09-22T11:43:45.737Z,4.85
2022-09-22T11:46:33.928Z,2.83
2022-09-22T11:49:19.260Z,3.38
2022-09-22T11:51:53.827Z,3.95
2022-09-22T11:54:20.456Z,2.45
2022-09-22T11:56:53.282Z,0.40
2022-09-22T11:59:35.595Z,2.47
2022-09-22T12:02:12.186Z,1.08
2022-09-22T12:04:51.964Z,1.58
2022-09-22T12:07:28.000Z,2.13
2022-09-22T12:10:07.936Z,1.83
2022-09-22T12:12:35.265Z,2.42
2022-09-22T12:15:21.313Z,5.18
2022-09-22T12:18:05.469Z,0.55
2022-09-22T12:20:44.497Z,1.30
2022-09-22T12:23:27.533Z,1.85
2022-09-22T12:25:58.173Z,2.88
2022-09-22T12:28:28.185Z,4.68
2022-09-22T12:31:12.940Z,1.67
2022-09-22T12:33:47.695Z,5.85
2022-09-22T12:36:15.517Z,3.40
2022-09-22T12:38:43.893Z,1.48
2022-09-22T12:41:17.665Z,3.17
2022-09-22T12:43:45.944Z,3.58
2022-09-22T12:46:27.974Z,3.28
2022-09-22T12:48:54.952Z,6.47
2022-09-22T12:51:24.571Z,4.30
2022-09-22T12:53:51.764Z,3.33
2022-09-22T12:56:47.148Z,5.97
2022-09-22T12:59:35.759Z,4.85
2022-09-22T13:02:31.644Z,4.95
2022-09-22T13:04:58.709Z,5.03
2022-09-22T13:07:44.442Z,5.22
2022-09-22T13:10:23.186Z,5.97
2022-09-22T13:13:01.068Z,10.20
2022-09-22T13:15:35.160Z,4.13
2022-09-22T13:18:03.960Z,3.75
2022-09-22T13:20:33.143Z,3.03
2022-09-22T13:23:13.030Z,1.65
2022-09-22T13:25:40.441Z,3.35
2022-09-22T13:28:09.878Z,3.58
2022-09-22T13:30:38.536Z,1.25
2022-09-22T13:33:05.777Z,4.22
2022-09-22T13:35:37.673Z,2.88
2022-09-22T13:40:34.981Z,3.75
2022-09-22T13:43:07.601Z,3.92
2022-09-22T13:45:38.649Z,2.75
2022-09-22T13:48:15.849Z,4.32
2022-09-22T13:50:59.038Z,5.75
2022-09-22T13:53:26.276Z,9.88
2022-09-22T13:55:54.266Z,4.28
2022-09-22T13:58:41.785Z,3.85
2022-09-22T14:01:20.981Z,1.77
2022-09-22T14:03:49.395Z,4.30
2022-09-22T14:06:19.386Z,2.42
2022-09-22T14:08:48.369Z,4.30
2022-09-22T14:11:27.470Z,4.60
2022-09-22T14:13:54.596Z,4.40
2022-09-22T14:16:43.622Z,1.90
2022-09-22T14:19:24.704Z,2.50
2022-09-22T14:24:19.583Z,3.22
2022-09-22T14:26:51.295Z,2.80
2022-09-22T14:29:25.505Z,2.67
2022-09-22T14:32:19.846Z,3.30
2022-09-22T14:34:54.864Z,2.50
2022-09-22T14:37:24.934Z,2.92
2022-09-22T14:39:53.965Z,2.60
2022-09-22T14:42:31.661Z,2.88
2022-09-22T14:45:10.261Z,3.05
2022-09-22T14:47:42.490Z,2.53
2022-09-22T14:50:27.423Z,2.92
2022-09-22T14:53:06.988Z,8.52
2022-09-22T14:55:39.743Z,5.70
2022-09-22T14:58:14.773Z,1.90
2022-09-22T15:01:35.499Z,3.85
2022-09-22T15:04:25.287Z,4.93
2022-09-22T15:06:56.506Z,7.13
2022-09-22T15:09:34.203Z,6.65
2022-09-22T15:12:03.575Z,5.63
2022-09-22T15:14:45.061Z,5.28
2022-09-22T15:17:55.547Z,4.80
2022-09-22T15:20:25.218Z,7.07
2022-09-22T15:22:56.252Z,8.95
2022-09-22T15:25:24.338Z,3.10
2022-09-22T15:27:53.384Z,4.97
2022-09-22T15:30:22.161Z,4.03
2022-09-22T15:32:49.812Z,4.53
2022-09-22T15:35:18.054Z,4.38
2022-09-22T15:37:50.169Z,4.70
2022-09-22T15:40:20.628Z,5.65
2022-09-22T15:43:11.223Z,7.50
2022-09-22T15:45:37.398Z,4.15
2022-09-22T15:48:05.287Z,3.70
2022-09-22T15:50:32.607Z,4.70
2022-09-22T15:52:59.306Z,5.10
2022-09-22T15:55:26.115Z,5.43
2022-09-22T15:57:55.373Z,6.45
2022-09-22T16:00:27.251Z,2.72
2022-09-22T16:05:21.756Z,3.47
2022-09-22T16:07:51.672Z,6.15
2022-09-22T16:10:23.577Z,6.45
2022-09-22T16:15:18.156Z,5.53
2022-09-22T16:17:46.016Z,9.43
2022-09-22T16:20:15.851Z,4.93
2022-09-22T16:22:45.465Z,3.65
2022-09-22T16:25:12.767Z,6.72
2022-09-22T16:27:39.545Z,7.28
2022-09-22T16:30:07.005Z,4.65
2022-09-22T16:32:34.088Z,2.95
2022-09-22T16:35:00.770Z,9.80
2022-09-22T16:37:29.255Z,7.47
2022-09-22T16:39:56.311Z,2.30
2022-09-22T16:42:23.859Z,7.82
2022-09-22T16:44:50.846Z,4.18
2022-09-22T16:47:21.217Z,3.90
2022-09-22T16:49:49.650Z,6.30
2022-09-22T16:52:16.816Z,4.10
2022-09-22T16:54:44.150Z,3.70
2022-09-22T16:57:10.847Z,5.97
2022-09-22T16:59:38.098Z,9.43
2022-09-22T17:02:05.127Z,10.55
2022-09-22T17:04:32.437Z,6.50
2022-09-22T17:06:59.331Z,2.58
2022-09-22T17:09:26.107Z,5.65
2022-09-22T17:11:53.722Z,7.18
2022-09-22T17:14:24.542Z,7.13
2022-09-22T17:16:55.465Z,6.90
2022-09-22T17:19:27.646Z,6.90
2022-09-22T17:21:56.498Z,9.23
2022-09-22T17:24:24.809Z,8.15
2022-09-22T17:26:53.973Z,8.30
2022-09-22T17:29:26.519Z,3.58
2022-09-22T17:31:57.461Z,6.13
2022-09-22T17:34:25.591Z,4.70
2022-09-22T17:36:55.473Z,4.15
2022-09-22T17:39:27.239Z,5.07
2022-09-22T17:41:55.244Z,5.60
2022-09-22T17:44:22.084Z,5.75
2022-09-22T17:47:11.572Z,7.25
2022-09-22T17:49:59.383Z,7.97
2022-09-22T17:52:29.764Z,9.23
2022-09-22T17:55:07.280Z,9.38
2022-09-22T17:57:39.333Z,12.05
2022-09-22T18:02:39.055Z,3.08
2022-09-22T18:05:14.599Z,11.75
2022-09-22T18:07:41.935Z,9.85
2022-09-22T18:10:11.044Z,5.63
2022-09-22T18:12:37.967Z,5.68
2022-09-22T18:15:05.591Z,9.05
2022-09-22T18:17:41.338Z,23.00
2022-09-22T18:20:20.760Z,31.27
2022-09-22T18:22:48.603Z,18.27
2022-09-22T18:25:19.705Z,22.23
2022-09-22T18:27:48.783Z,21.83
2022-09-22T18:30:17.115Z,22.65
2022-09-22T18:32:44.160Z,18.73
2022-09-22T18:35:12.955Z,18.85
2022-09-22T18:37:41.134Z,13.48
2022-09-22T18:40:09.378Z,10.35
2022-09-22T18:42:36.858Z,10.75
2022-09-22T18:45:04.216Z,13.00
2022-09-22T18:47:30.949Z,7.75
2022-09-22T18:49:59.290Z,7.15
2022-09-22T18:52:27.765Z,5.38
2022-09-22T18:54:54.735Z,6.82
2022-09-22T18:57:27.339Z,7.65
2022-09-22T18:59:57.755Z,7.80
2022-09-22T19:02:29.147Z,8.95
2022-09-22T19:04:55.878Z,8.60
2022-09-22T19:07:52.109Z,10.80
2022-09-22T19:10:23.509Z,12.05
2022-09-22T19:12:50.416Z,8.30
2022-09-22T19:15:19.084Z,8.68
2022-09-22T19:17:49.725Z,4.95
2022-09-22T19:20:21.333Z,8.77
2022-09-22T19:22:50.552Z,9.70
2022-09-22T19:25:20.175Z,6.65
2022-09-22T19:27:47.058Z,9.45
2022-09-22T19:30:14.106Z,7.43
2022-09-22T19:32:41.380Z,10.50
2022-09-22T19:35:08.857Z,7.40
2022-09-22T19:37:36.409Z,9.60
2022-09-22T19:40:05.490Z,10.45
2022-09-22T19:42:32.530Z,13.35
2022-09-22T19:45:00.354Z,10.20
2022-09-22T19:47:27.052Z,9.10
2022-09-22T19:49:55.073Z,9.05
2022-09-22T19:52:21.975Z,13.40
2022-09-22T19:54:48.673Z,15.68
2022-09-22T19:57:16.438Z,10.82
2022-09-22T19:59:43.129Z,12.77
2022-09-22T20:02:14.473Z,8.73
2022-09-22T20:04:41.638Z,9.63
2022-09-22T20:07:08.646Z,7.30
2022-09-22T20:09:35.693Z,8.38
2022-09-22T20:12:02.683Z,10.23
2022-09-22T20:14:31.544Z,5.88
2022-09-22T20:17:04.125Z,8.13
2022-09-22T20:19:35.276Z,6.90
2022-09-22T20:22:17.580Z,4.20
2022-09-22T20:27:17.274Z,9.07
2022-09-22T20:29:44.064Z,6.07
2022-09-22T20:32:10.939Z,10.77
2022-09-22T20:34:38.006Z,7.65
2022-09-22T20:37:04.710Z,8.90
2022-09-22T20:39:32.740Z,10.43
2022-09-22T20:41:59.878Z,5.18
2022-09-22T20:44:26.522Z,8.43
2022-09-22T20:46:53.213Z,6.53
2022-09-22T20:49:20.105Z,6.68
2022-09-22T20:51:47.562Z,7.25
2022-09-22T20:54:14.481Z,9.35
2022-09-22T20:56:42.961Z,3.40
2022-09-22T20:59:10.327Z,10.90
2022-09-22T21:01:37.190Z,6.88
2022-09-22T21:04:04.028Z,3.38
2022-09-22T21:06:31.203Z,9.65
2022-09-22T21:09:16.635Z,11.10
2022-09-22T21:11:44.181Z,5.97
2022-09-22T21:14:11.315Z,6.88
2022-09-22T21:16:40.093Z,6.50
2022-09-22T21:19:08.289Z,6.05
2022-09-22T21:21:38.482Z,5.97
2022-09-22T21:24:05.474Z,4.88
2022-09-22T21:26:33.204Z,15.25
2022-09-22T21:29:00.290Z,6.25
2022-09-22T21:31:27.406Z,7.53
2022-09-22T21:33:54.787Z,5.30
2022-09-22T21:36:23.117Z,6.38
2022-09-22T21:38:55.813Z,5.70
2022-09-22T21:41:25.541Z,6.15
2022-09-22T21:43:52.746Z,8.00
2022-09-22T21:46:22.276Z,7.88
2022-09-22T21:48:49.265Z,10.93
2022-09-22T21:51:22.334Z,8.85
2022-09-22T21:53:52.266Z,4.88
2022-09-22T21:56:20.803Z,8.30
2022-09-22T21:58:50.212Z,9.77
2022-09-22T22:01:19.460Z,5.15
2022-09-22T22:03:47.420Z,11.63
2022-09-22T22:06:14.105Z,2.58
2022-09-22T22:08:51.418Z,10.38
2022-09-22T22:11:23.530Z,6.15
2022-09-22T22:16:25.825Z,7.57
2022-09-22T22:18:53.058Z,9.65
2022-09-22T22:21:25.051Z,5.80
2022-09-22T22:23:55.109Z,1.17
2022-09-22T22:26:25.212Z,4.28
2022-09-22T22:28:52.981Z,8.00
2022-09-22T22:31:22.855Z,7.60
2022-09-22T22:33:50.818Z,6.00
2022-09-22T22:36:19.816Z,2.35
2022-09-22T22:38:46.529Z,6.78
2022-09-22T22:41:17.296Z,3.83
2022-09-22T22:43:44.664Z,8.75
2022-09-22T22:46:16.326Z,3.42
2022-09-22T22:48:44.071Z,5.30
2022-09-22T22:51:14.343Z,2.55
2022-09-22T22:53:43.505Z,3.72
2022-09-22T22:56:13.574Z,6.05
2022-09-22T22:58:40.340Z,8.95
2022-09-22T23:01:19.575Z,8.95
2022-09-22T23:03:50.296Z,5.22
2022-09-22T23:06:21.161Z,8.70
2022-09-22T23:08:49.156Z,7.55
2022-09-22T23:11:37.254Z,6.80
2022-09-22T23:14:06.277Z,2.40
2022-09-22T23:16:37.518Z,6.68
2022-09-22T23:19:07.644Z,8.98
2022-09-22T23:21:36.220Z,8.95
2022-09-22T23:24:04.053Z,5.40
2022-09-22T23:26:30.937Z,5.95
2022-09-22T23:29:02.113Z,3.67
2022-09-22T23:31:28.941Z,5.03
2022-09-22T23:33:57.655Z,8.30
2022-09-22T23:36:27.781Z,4.68
2022-09-22T23:39:04.750Z,7.97
2022-09-22T23:41:33.285Z,1.83
2022-09-22T23:44:00.452Z,3.78
2022-09-22T23:46:28.637Z,4.32
2022-09-22T23:48:55.823Z,6.82
2022-09-22T23:51:24.693Z,7.10
2022-09-22T23:53:51.827Z,5.07
2022-09-22T23:56:19.807Z,5.78
2022-09-22T23:58:46.674Z,3.45
